createdAt,value
2019-05-01T00:01:33.191Z,16.70
2019-05-01T00:04:09.660Z,16.70
2019-05-01T00:06:42.430Z,18.83
2019-05-01T00:09:12.031Z,17.90
2019-05-01T00:11:40.693Z,17.90
2019-05-01T00:14:09.973Z,19.03
2019-05-01T00:16:38.983Z,17.60
2019-05-01T00:19:07.743Z,15.00
2019-05-01T00:21:36.213Z,17.13
2019-05-01T00:24:04.882Z,16.13
2019-05-01T00:26:33.344Z,15.67
2019-05-01T00:29:01.845Z,16.33
2019-05-01T00:31:30.375Z,15.43
2019-05-01T00:33:58.844Z,14.70
2019-05-01T00:36:27.308Z,15.53
2019-05-01T00:38:55.955Z,16.30
2019-05-01T00:41:24.475Z,15.90
2019-05-01T00:43:52.918Z,17.77
2019-05-01T00:46:21.379Z,15.97
2019-05-01T00:48:49.840Z,16.37
2019-05-01T00:51:18.345Z,16.07
2019-05-01T00:53:46.797Z,15.90
2019-05-01T00:56:16.892Z,14.47
2019-05-01T00:58:58.989Z,14.77
2019-05-01T01:01:31.674Z,14.53
2019-05-01T01:04:00.570Z,13.67
2019-05-01T01:06:29.066Z,13.33
2019-05-01T01:08:57.532Z,13.23
2019-05-01T01:11:25.997Z,13.10
2019-05-01T01:13:54.463Z,13.57
2019-05-01T01:16:22.980Z,13.70
2019-05-01T01:18:51.434Z,13.67
2019-05-01T01:21:19.885Z,13.13
2019-05-01T01:23:48.817Z,13.33
2019-05-01T01:26:18.134Z,13.13
2019-05-01T01:28:46.691Z,12.30
2019-05-01T01:31:15.143Z,12.93
2019-05-01T01:33:43.662Z,12.87
2019-05-01T01:36:12.123Z,12.53
2019-05-01T01:38:40.721Z,12.57
2019-05-01T01:41:09.346Z,12.23
2019-05-01T01:43:45.478Z,12.33
2019-05-01T01:46:21.522Z,12.27
2019-05-01T01:48:50.146Z,12.13
2019-05-01T01:51:19.457Z,11.10
2019-05-01T01:53:49.337Z,11.87
2019-05-01T01:56:18.930Z,11.97
2019-05-01T01:58:47.540Z,11.97
2019-05-01T02:01:29.566Z,10.77
2019-05-01T02:04:17.525Z,12.20
2019-05-01T02:06:47.153Z,11.03
2019-05-01T02:09:16.226Z,11.97
2019-05-01T02:11:49.358Z,10.97
2019-05-01T02:14:17.933Z,10.40
2019-05-01T02:16:46.775Z,10.70
2019-05-01T02:19:15.439Z,9.37
2019-05-01T02:21:43.898Z,11.10
2019-05-01T02:24:12.432Z,9.80
2019-05-01T02:26:51.657Z,10.00
2019-05-01T02:29:25.625Z,9.80
2019-05-01T02:31:56.123Z,8.90
2019-05-01T02:34:25.999Z,9.07
2019-05-01T02:36:57.161Z,9.10
2019-05-01T02:39:27.335Z,7.93
2019-05-01T02:41:59.059Z,8.10
2019-05-01T02:44:36.579Z,9.20
2019-05-01T02:47:08.428Z,8.73
2019-05-01T02:49:55.046Z,7.87
2019-05-01T02:52:43.924Z,8.43
2019-05-01T02:55:15.414Z,8.00
2019-05-01T02:57:45.006Z,7.33
2019-05-01T03:00:14.012Z,8.63
2019-05-01T03:02:43.020Z,7.30
2019-05-01T03:05:11.620Z,7.53
2019-05-01T03:07:40.977Z,7.03
2019-05-01T03:10:11.198Z,7.93
2019-05-01T03:12:42.113Z,7.23
2019-05-01T03:15:12.868Z,6.93
2019-05-01T03:17:56.693Z,8.47
2019-05-01T03:20:29.917Z,7.40
2019-05-01T03:23:12.572Z,7.23
2019-05-01T03:25:41.259Z,7.07
2019-05-01T03:28:09.779Z,6.90
2019-05-01T03:30:38.756Z,8.37
2019-05-01T03:33:07.815Z,7.30
2019-05-01T03:35:36.848Z,7.87
2019-05-01T03:38:06.053Z,7.50
2019-05-01T03:40:35.045Z,7.23
2019-05-01T03:43:04.041Z,7.90
2019-05-01T03:45:34.260Z,7.20
2019-05-01T03:48:03.634Z,8.03
2019-05-01T03:50:32.296Z,6.77
2019-05-01T03:53:01.138Z,6.93
2019-05-01T03:55:29.798Z,7.60
2019-05-01T03:57:59.171Z,7.30
2019-05-01T04:00:38.683Z,7.40
2019-05-01T04:03:17.661Z,7.30
2019-05-01T04:05:46.453Z,6.73
2019-05-01T04:08:14.917Z,7.87
2019-05-01T04:10:43.713Z,6.77
2019-05-01T04:13:12.405Z,7.73
2019-05-01T04:15:41.710Z,7.40
2019-05-01T04:18:11.093Z,6.73
2019-05-01T04:20:39.956Z,6.57
2019-05-01T04:23:08.961Z,7.63
2019-05-01T04:25:37.923Z,7.17
2019-05-01T04:28:25.225Z,7.27
2019-05-01T04:31:11.768Z,6.90
2019-05-01T04:33:41.927Z,7.17
2019-05-01T04:36:12.389Z,6.93
2019-05-01T04:38:40.959Z,6.43
2019-05-01T04:41:09.682Z,7.00
2019-05-01T04:43:38.684Z,7.10
2019-05-01T04:46:07.486Z,6.67
2019-05-01T04:48:36.383Z,6.97
2019-05-01T04:51:05.645Z,7.00
2019-05-01T04:53:35.051Z,6.80
2019-05-01T04:56:04.035Z,7.47
2019-05-01T04:58:32.720Z,7.17
2019-05-01T05:01:01.657Z,6.63
2019-05-01T05:03:30.654Z,7.13
2019-05-01T05:06:00.021Z,7.90
2019-05-01T05:08:28.471Z,7.87
2019-05-01T05:10:58.698Z,6.77
2019-05-01T05:13:28.870Z,7.10
2019-05-01T05:16:00.083Z,7.00
2019-05-01T05:18:29.820Z,7.10
2019-05-01T05:20:59.939Z,6.37
2019-05-01T05:23:30.437Z,6.33
2019-05-01T05:26:00.642Z,6.80
2019-05-01T05:28:31.384Z,6.20
2019-05-01T05:31:02.183Z,6.53
2019-05-01T05:33:33.341Z,5.97
2019-05-01T05:36:04.502Z,6.70
2019-05-01T05:38:41.540Z,5.83
2019-05-01T05:41:11.068Z,6.53
2019-05-01T05:43:39.853Z,5.43
2019-05-01T05:46:08.790Z,5.73
2019-05-01T05:48:37.549Z,6.23
2019-05-01T05:51:18.212Z,6.37
2019-05-01T05:53:50.915Z,5.53
2019-05-01T05:56:21.688Z,5.70
2019-05-01T05:58:54.415Z,6.17
2019-05-01T06:01:35.575Z,5.37
2019-05-01T06:04:14.667Z,6.27
2019-05-01T06:06:46.680Z,5.90
2019-05-01T06:09:18.467Z,5.23
2019-05-01T06:11:55.013Z,5.90
2019-05-01T06:14:39.877Z,5.07
2019-05-01T06:17:16.007Z,5.27
2019-05-01T06:19:52.323Z,5.77
2019-05-01T06:22:36.139Z,5.47
2019-05-01T06:25:21.091Z,5.60
2019-05-01T06:27:38.640Z,5.97
2019-05-01T06:30:11.126Z,5.53
2019-05-01T06:32:41.519Z,5.63
2019-05-01T06:35:10.123Z,4.90
2019-05-01T06:38:00.637Z,5.20
2019-05-01T06:40:40.522Z,5.23
2019-05-01T06:43:38.939Z,5.67
2019-05-01T06:46:11.724Z,5.80
2019-05-01T06:48:48.874Z,4.87
2019-05-01T06:51:35.380Z,5.57
2019-05-01T06:54:11.510Z,5.53
2019-05-01T06:56:38.788Z,5.23
2019-05-01T06:59:09.008Z,5.77
2019-05-01T07:01:38.055Z,4.47
2019-05-01T07:04:07.559Z,5.70
2019-05-01T07:06:36.688Z,6.03
2019-05-01T07:09:11.774Z,5.30
2019-05-01T07:11:42.301Z,5.60
2019-05-01T07:14:11.099Z,4.67
2019-05-01T07:16:40.505Z,5.20
2019-05-01T07:19:09.807Z,5.70
2019-05-01T07:21:38.544Z,5.40
2019-05-01T07:24:07.061Z,4.83
2019-05-01T07:26:35.690Z,4.83
2019-05-01T07:29:10.000Z,5.23
2019-05-01T07:31:39.701Z,5.77
2019-05-01T07:34:16.407Z,5.87
2019-05-01T07:36:38.743Z,5.60
2019-05-01T07:39:09.934Z,6.30
2019-05-01T07:41:39.022Z,5.20
2019-05-01T07:44:09.821Z,4.97
2019-05-01T07:46:40.263Z,4.87
2019-05-01T07:49:12.935Z,5.17
2019-05-01T07:51:42.353Z,5.80
2019-05-01T07:54:11.442Z,5.73
2019-05-01T07:56:40.323Z,5.33
2019-05-01T07:59:09.041Z,5.87
2019-05-01T08:01:39.156Z,5.00
2019-05-01T08:04:07.955Z,5.10
2019-05-01T08:06:36.411Z,5.17
2019-05-01T08:09:06.673Z,5.00
2019-05-01T08:11:39.137Z,5.83
2019-05-01T08:14:07.545Z,4.57
2019-05-01T08:16:37.864Z,5.23
2019-05-01T08:19:07.632Z,4.40
2019-05-01T08:21:40.445Z,5.10
2019-05-01T08:24:08.921Z,4.33
2019-05-01T08:26:39.769Z,4.53
2019-05-01T08:29:21.352Z,5.83
2019-05-01T08:31:51.509Z,4.57
2019-05-01T08:34:30.468Z,4.70
2019-05-01T08:36:59.007Z,4.67
2019-05-01T08:39:27.508Z,3.93
2019-05-01T08:41:56.340Z,4.33
2019-05-01T08:44:29.548Z,5.00
2019-05-01T08:47:13.704Z,4.37
2019-05-01T08:49:50.880Z,3.87
2019-05-01T08:52:19.666Z,3.90
2019-05-01T08:54:48.135Z,3.67
2019-05-01T08:57:16.663Z,3.93
2019-05-01T08:59:45.180Z,4.10
2019-05-01T09:02:13.717Z,3.30
2019-05-01T09:04:42.183Z,3.40
2019-05-01T09:07:14.739Z,3.67
2019-05-01T09:09:45.612Z,3.53
2019-05-01T09:12:12.035Z,2.90
2019-05-01T09:14:41.249Z,3.03
2019-05-01T09:17:09.695Z,3.23
2019-05-01T09:19:38.182Z,3.60
2019-05-01T09:22:07.175Z,3.10
2019-05-01T09:24:35.710Z,3.47
2019-05-01T09:27:14.993Z,3.77
2019-05-01T09:29:46.770Z,3.33
2019-05-01T09:32:15.417Z,3.90
2019-05-01T09:34:43.883Z,3.27
2019-05-01T09:37:12.439Z,3.03
2019-05-01T09:39:41.059Z,3.13
2019-05-01T09:42:10.123Z,2.93
2019-05-01T09:44:38.671Z,3.47
2019-05-01T09:47:07.475Z,3.30
2019-05-01T09:49:36.166Z,3.43
2019-05-01T09:52:24.579Z,3.80
2019-05-01T09:54:55.149Z,2.90
2019-05-01T09:57:23.674Z,3.40
2019-05-01T09:59:52.215Z,3.53
2019-05-01T10:02:20.678Z,3.00
2019-05-01T10:04:49.166Z,3.10
2019-05-01T10:07:17.631Z,3.10
2019-05-01T10:09:47.373Z,3.20
2019-05-01T10:12:16.390Z,3.90
2019-05-01T10:14:44.916Z,3.20
2019-05-01T10:17:13.624Z,3.37
2019-05-01T10:19:42.366Z,3.37
2019-05-01T10:22:10.832Z,4.10
2019-05-01T10:24:39.434Z,3.97
2019-05-01T10:27:09.842Z,3.73
2019-05-01T10:29:57.046Z,2.70
2019-05-01T10:32:34.271Z,3.13
2019-05-01T10:35:04.366Z,3.30
2019-05-01T10:37:33.861Z,3.10
2019-05-01T10:40:04.016Z,3.00
2019-05-01T10:42:32.538Z,3.20
2019-05-01T10:45:01.092Z,3.33
2019-05-01T10:47:29.620Z,2.63
2019-05-01T10:49:58.156Z,3.30
2019-05-01T10:52:26.615Z,2.77
2019-05-01T10:54:55.064Z,2.73
2019-05-01T10:57:23.527Z,2.97
2019-05-01T10:59:51.986Z,2.90
2019-05-01T11:02:20.444Z,3.30
2019-05-01T11:04:48.964Z,2.50
2019-05-01T11:07:17.455Z,3.27
2019-05-01T11:09:46.034Z,2.93
2019-05-01T11:12:14.540Z,3.13
2019-05-01T11:14:42.987Z,3.03
2019-05-01T11:17:11.439Z,2.80
2019-05-01T11:19:39.988Z,2.80
2019-05-01T11:22:08.574Z,3.27
2019-05-01T11:24:37.073Z,3.00
2019-05-01T11:27:06.024Z,2.97
2019-05-01T11:29:34.487Z,3.17
2019-05-01T11:32:22.600Z,3.10
2019-05-01T11:35:08.875Z,2.90
2019-05-01T11:37:51.335Z,3.80
2019-05-01T11:40:22.039Z,4.47
2019-05-01T11:42:50.550Z,3.33
2019-05-01T11:45:20.170Z,3.73
2019-05-01T11:47:48.635Z,3.10
2019-05-01T11:50:17.091Z,3.13
2019-05-01T11:52:45.578Z,3.27
2019-05-01T11:55:14.450Z,3.80
2019-05-01T11:57:42.993Z,2.93
2019-05-01T12:00:14.030Z,3.30
2019-05-01T12:02:42.533Z,3.23
2019-05-01T12:05:11.155Z,3.80
2019-05-01T12:07:39.690Z,3.97
2019-05-01T12:10:08.559Z,3.33
2019-05-01T12:12:37.031Z,3.33
2019-05-01T12:15:07.385Z,2.90
2019-05-01T12:17:51.493Z,3.02
2019-05-01T12:20:21.572Z,3.30
2019-05-01T12:22:51.546Z,3.00
2019-05-01T12:25:39.674Z,2.85
2019-05-01T12:28:08.126Z,3.30
2019-05-01T12:30:36.587Z,3.17
2019-05-01T12:33:05.543Z,3.00
2019-05-01T12:35:33.992Z,3.00
2019-05-01T12:38:04.327Z,2.98
2019-05-01T12:40:32.858Z,2.80
2019-05-01T12:43:01.693Z,2.40
2019-05-01T12:45:30.230Z,3.50
2019-05-01T12:48:00.659Z,2.83
2019-05-01T12:50:29.118Z,2.80
2019-05-01T12:52:59.200Z,2.70
2019-05-01T12:55:45.715Z,2.52
2019-05-01T12:58:14.163Z,3.10
2019-05-01T13:00:46.909Z,2.43
2019-05-01T13:03:15.839Z,1.98
2019-05-01T13:05:44.370Z,2.08
2019-05-01T13:08:12.896Z,2.25
2019-05-01T13:10:41.538Z,2.72
2019-05-01T13:13:11.255Z,1.92
2019-05-01T13:15:40.278Z,2.35
2019-05-01T13:18:08.907Z,1.92
2019-05-01T13:20:37.433Z,2.45
2019-05-01T13:23:05.885Z,1.77
2019-05-01T13:25:34.345Z,1.80
2019-05-01T13:28:10.298Z,2.15
2019-05-01T13:30:58.387Z,1.98
2019-05-01T13:33:26.857Z,1.98
2019-05-01T13:36:08.080Z,1.60
2019-05-01T13:38:36.531Z,2.30
2019-05-01T13:41:05.050Z,2.33
2019-05-01T13:43:33.616Z,2.20
2019-05-01T13:46:02.139Z,2.00
2019-05-01T13:48:30.601Z,2.20
2019-05-01T13:50:59.211Z,1.75
2019-05-01T13:53:27.786Z,1.97
2019-05-01T13:55:56.314Z,1.50
2019-05-01T13:58:24.827Z,2.00
2019-05-01T14:00:53.432Z,2.13
2019-05-01T14:03:21.960Z,2.43
2019-05-01T14:05:50.501Z,2.23
2019-05-01T14:08:19.101Z,2.33
2019-05-01T14:10:47.586Z,2.80
2019-05-01T14:13:16.051Z,2.37
2019-05-01T14:15:44.574Z,2.83
2019-05-01T14:18:13.039Z,2.70
2019-05-01T14:20:43.120Z,2.50
2019-05-01T14:23:13.241Z,2.57
2019-05-01T14:25:59.771Z,2.57
2019-05-01T14:28:28.307Z,2.67
2019-05-01T14:30:56.775Z,2.87
2019-05-01T14:33:25.235Z,3.20
2019-05-01T14:35:53.793Z,2.50
2019-05-01T14:38:22.249Z,2.70
2019-05-01T14:40:50.704Z,2.90
2019-05-01T14:43:19.229Z,2.93
2019-05-01T14:45:47.719Z,2.63
2019-05-01T14:48:16.165Z,3.10
2019-05-01T14:50:45.206Z,2.90
2019-05-01T14:53:13.711Z,2.57
2019-05-01T14:55:42.255Z,3.80
2019-05-01T14:58:18.102Z,2.83
2019-05-01T15:00:46.586Z,3.33
2019-05-01T15:03:15.082Z,3.50
2019-05-01T15:05:43.534Z,3.53
2019-05-01T15:08:11.987Z,3.03
2019-05-01T15:10:40.451Z,2.83
2019-05-01T15:13:13.177Z,2.97
2019-05-01T15:16:01.677Z,2.63
2019-05-01T15:18:31.849Z,2.67
2019-05-01T15:21:00.298Z,3.33
2019-05-01T15:23:28.774Z,3.17
2019-05-01T15:25:57.294Z,3.43
2019-05-01T15:28:25.760Z,3.13
2019-05-01T15:30:54.282Z,3.10
2019-05-01T15:33:22.766Z,2.37
2019-05-01T15:35:51.212Z,2.87
2019-05-01T15:38:19.671Z,3.00
2019-05-01T15:40:58.355Z,2.90
2019-05-01T15:43:33.974Z,2.70
2019-05-01T15:46:02.444Z,2.83
2019-05-01T15:48:30.970Z,2.93
2019-05-01T15:50:59.436Z,2.77
2019-05-01T15:53:27.899Z,3.33
2019-05-01T15:55:56.408Z,2.93
2019-05-01T15:58:24.934Z,3.30
2019-05-01T16:00:53.390Z,4.17
2019-05-01T16:03:21.850Z,3.10
2019-05-01T16:05:50.357Z,3.50
2019-05-01T16:08:18.805Z,3.90
2019-05-01T16:11:06.862Z,4.50
2019-05-01T16:13:47.146Z,3.87
2019-05-01T16:16:15.610Z,3.37
2019-05-01T16:18:44.072Z,3.20
2019-05-01T16:21:12.534Z,3.10
2019-05-01T16:23:40.995Z,3.50
2019-05-01T16:26:09.793Z,3.83
2019-05-01T16:28:38.705Z,3.80
2019-05-01T16:31:07.206Z,3.67
2019-05-01T16:33:35.723Z,3.43
2019-05-01T16:36:04.247Z,4.07
2019-05-01T16:38:34.385Z,3.43
2019-05-01T16:41:04.491Z,3.27
2019-05-01T16:43:33.010Z,4.70
2019-05-01T16:46:01.465Z,3.57
2019-05-01T16:48:29.918Z,3.90
2019-05-01T16:50:58.405Z,4.93
2019-05-01T16:53:26.867Z,3.50
2019-05-01T16:55:55.313Z,3.93
2019-05-01T16:58:24.157Z,4.80
2019-05-01T17:01:00.036Z,4.97
2019-05-01T17:03:33.058Z,4.47
2019-05-01T17:06:03.321Z,5.17
2019-05-01T17:08:36.451Z,3.83
2019-05-01T17:11:04.583Z,4.00
2019-05-01T17:13:33.130Z,4.63
2019-05-01T17:16:01.732Z,5.47
2019-05-01T17:18:30.196Z,4.83
2019-05-01T17:20:58.659Z,4.47
2019-05-01T17:23:27.223Z,4.43
2019-05-01T17:25:55.759Z,4.83
2019-05-01T17:28:24.219Z,4.83
2019-05-01T17:30:54.310Z,5.93
2019-05-01T17:33:22.766Z,5.80
2019-05-01T17:35:51.222Z,4.77
2019-05-01T17:38:19.834Z,5.20
2019-05-01T17:40:51.952Z,4.40
2019-05-01T17:43:18.590Z,4.23
2019-05-01T17:45:47.119Z,4.50
2019-05-01T17:48:15.683Z,4.87
2019-05-01T17:50:44.253Z,4.20
2019-05-01T17:53:12.742Z,4.40
2019-05-01T17:55:41.203Z,4.50
2019-05-01T17:58:09.649Z,4.60
2019-05-01T18:00:39.855Z,11.80
2019-05-01T18:03:15.618Z,11.57
2019-05-01T18:05:45.744Z,10.07
2019-05-01T18:08:14.270Z,10.63
2019-05-01T18:10:42.766Z,7.30
2019-05-01T18:13:11.230Z,6.87
2019-05-01T18:15:39.688Z,7.33
2019-05-01T18:18:10.745Z,9.47
2019-05-01T18:20:38.335Z,8.53
2019-05-01T18:23:14.219Z,7.37
2019-05-01T18:25:50.162Z,10.43
2019-05-01T18:28:30.008Z,10.30
2019-05-01T18:30:58.176Z,8.20
2019-05-01T18:33:27.216Z,10.03
2019-05-01T18:35:56.345Z,12.77
2019-05-01T18:38:26.596Z,59.40
2019-05-01T18:41:15.713Z,38.10
2019-05-01T18:43:44.311Z,31.93
2019-05-01T18:46:14.113Z,21.57
2019-05-01T18:49:01.924Z,11.40
2019-05-01T18:51:30.446Z,11.37
2019-05-01T18:53:59.279Z,17.13
2019-05-01T18:56:27.764Z,27.03
2019-05-01T18:58:56.389Z,21.00
2019-05-01T19:01:24.860Z,23.33
2019-05-01T19:03:53.322Z,20.87
2019-05-01T19:06:21.802Z,20.07
2019-05-01T19:08:50.818Z,15.03
2019-05-01T19:11:19.377Z,13.70
2019-05-01T19:13:47.961Z,13.57
2019-05-01T19:16:16.503Z,15.13
2019-05-01T19:18:45.023Z,12.90
2019-05-01T19:21:13.625Z,11.60
2019-05-01T19:23:42.088Z,10.70
2019-05-01T19:26:12.626Z,11.40
2019-05-01T19:28:41.559Z,14.40
2019-05-01T19:31:10.015Z,10.30
2019-05-01T19:33:41.559Z,9.37
2019-05-01T19:36:10.324Z,7.60
2019-05-01T19:38:38.985Z,8.20
2019-05-01T19:41:08.939Z,7.00
2019-05-01T19:43:40.572Z,6.70
2019-05-01T19:46:07.795Z,7.27
2019-05-01T19:48:36.314Z,6.67
2019-05-01T19:51:05.309Z,6.83
2019-05-01T19:53:33.848Z,7.37
2019-05-01T19:56:22.736Z,7.27
2019-05-01T19:59:03.774Z,7.97
2019-05-01T20:01:32.254Z,7.73
2019-05-01T20:04:00.788Z,7.90
2019-05-01T20:06:29.420Z,7.37
2019-05-01T20:08:57.939Z,7.70
2019-05-01T20:11:26.480Z,7.57
2019-05-01T20:13:54.934Z,7.70
2019-05-01T20:16:23.425Z,6.53
2019-05-01T20:18:52.258Z,7.10
2019-05-01T20:21:20.716Z,7.23
2019-05-01T20:23:49.222Z,6.83
2019-05-01T20:26:17.763Z,7.57
2019-05-01T20:28:47.127Z,7.73
2019-05-01T20:31:17.723Z,7.77
2019-05-01T20:33:46.190Z,15.70
2019-05-01T20:36:14.646Z,9.77
2019-05-01T20:38:43.173Z,7.90
2019-05-01T20:41:15.891Z,7.37
2019-05-01T20:43:43.330Z,8.40
2019-05-01T20:46:12.232Z,7.50
2019-05-01T20:48:40.866Z,7.00
2019-05-01T20:51:09.387Z,9.67
2019-05-01T20:53:37.849Z,23.97
2019-05-01T20:56:10.502Z,15.63
2019-05-01T20:58:41.986Z,15.13
2019-05-01T21:01:10.455Z,22.77
2019-05-01T21:03:40.654Z,17.43
2019-05-01T21:06:10.800Z,31.03
2019-05-01T21:08:43.668Z,22.93
2019-05-01T21:11:13.774Z,15.40
2019-05-01T21:13:42.233Z,14.60
2019-05-01T21:16:10.741Z,11.63
2019-05-01T21:18:39.224Z,14.53
2019-05-01T21:21:07.701Z,10.07
2019-05-01T21:23:36.201Z,11.47
2019-05-01T21:26:04.928Z,9.83
2019-05-01T21:28:34.085Z,8.33
2019-05-01T21:31:03.836Z,8.63
2019-05-01T21:33:33.957Z,8.57
2019-05-01T21:36:04.883Z,8.90
2019-05-01T21:38:32.977Z,8.93
2019-05-01T21:41:02.779Z,9.73
2019-05-01T21:43:33.207Z,9.73
2019-05-01T21:46:03.782Z,9.07
2019-05-01T21:48:33.429Z,9.07
2019-05-01T21:51:06.973Z,10.27
2019-05-01T21:53:32.867Z,9.53
2019-05-01T21:56:02.234Z,10.43
2019-05-01T21:58:33.999Z,10.97
2019-05-01T22:01:03.007Z,10.07
2019-05-01T22:03:31.482Z,11.03
2019-05-01T22:05:59.937Z,10.93
2019-05-01T22:08:28.400Z,12.43
2019-05-01T22:10:57.688Z,11.00
2019-05-01T22:13:27.046Z,10.63
2019-05-01T22:16:09.054Z,11.47
2019-05-01T22:18:41.850Z,11.00
2019-05-01T22:21:30.382Z,10.90
2019-05-01T22:24:06.450Z,13.73
2019-05-01T22:26:54.436Z,11.13
2019-05-01T22:29:27.167Z,12.03
2019-05-01T22:31:57.481Z,12.70
2019-05-01T22:34:34.973Z,13.97
2019-05-01T22:37:03.577Z,13.27
2019-05-01T22:39:33.615Z,11.43
2019-05-01T22:42:02.071Z,10.97
2019-05-01T22:44:30.526Z,11.00
2019-05-01T22:46:59.115Z,10.57
2019-05-01T22:49:27.646Z,11.67
2019-05-01T22:51:56.100Z,12.27
2019-05-01T22:54:24.601Z,10.53
2019-05-01T22:57:13.330Z,12.03
2019-05-01T22:59:41.827Z,11.30
2019-05-01T23:02:11.934Z,11.30
2019-05-01T23:04:40.589Z,11.90
2019-05-01T23:07:11.801Z,10.77
2019-05-01T23:09:39.577Z,11.40
2019-05-01T23:12:08.180Z,11.03
2019-05-01T23:14:36.827Z,11.33
2019-05-01T23:17:07.003Z,13.17
2019-05-01T23:19:35.466Z,9.77
2019-05-01T23:22:05.261Z,10.97
2019-05-01T23:24:33.842Z,11.60
2019-05-01T23:27:02.402Z,12.03
2019-05-01T23:29:30.859Z,10.47
2019-05-01T23:32:00.194Z,12.27
2019-05-01T23:34:28.679Z,12.20
2019-05-01T23:36:57.148Z,12.37
2019-05-01T23:39:25.763Z,12.30
2019-05-01T23:41:54.248Z,13.13
2019-05-01T23:44:22.721Z,13.20
2019-05-01T23:46:51.249Z,13.33
2019-05-01T23:49:19.716Z,13.53
2019-05-01T23:51:48.166Z,13.07
2019-05-01T23:54:16.655Z,12.57
2019-05-01T23:56:45.113Z,12.47
2019-05-01T23:59:13.752Z,12.97
